createdAt,value
2022-09-06T00:00:18.784Z,17.60
2022-09-06T00:02:47.374Z,17.60
2022-09-06T00:05:16.811Z,17.60
2022-09-06T00:07:44.860Z,17.60
2022-09-06T00:10:12.855Z,17.60
2022-09-06T00:12:41.305Z,17.60
2022-09-06T00:15:10.162Z,17.60
2022-09-06T00:17:38.150Z,17.50
2022-09-06T00:20:09.229Z,17.50
2022-09-06T00:22:38.801Z,17.40
2022-09-06T00:25:08.210Z,17.40
2022-09-06T00:27:36.217Z,17.40
2022-09-06T00:30:06.005Z,17.40
2022-09-06T00:32:34.292Z,17.40
2022-09-06T00:35:02.269Z,17.40
2022-09-06T00:37:30.235Z,17.40
2022-09-06T00:39:59.549Z,17.40
2022-09-06T00:42:27.496Z,17.30
2022-09-06T00:44:55.541Z,17.30
2022-09-06T00:47:23.571Z,17.30
2022-09-06T00:49:55.698Z,17.30
2022-09-06T00:52:24.241Z,17.30
2022-09-06T00:54:53.081Z,17.20
2022-09-06T00:57:26.949Z,17.20
2022-09-06T00:59:56.745Z,17.20
2022-09-06T01:02:24.841Z,17.20
2022-09-06T01:04:53.319Z,17.10
2022-09-06T01:07:33.094Z,17.10
2022-09-06T01:10:24.894Z,17.10
2022-09-06T01:13:04.444Z,17.00
2022-09-06T01:15:42.019Z,17.10
2022-09-06T01:18:25.102Z,17.10
2022-09-06T01:21:10.593Z,17.10
2022-09-06T01:24:04.551Z,17.10
2022-09-06T01:27:07.592Z,17.10
2022-09-06T01:29:44.585Z,17.00
2022-09-06T01:32:21.653Z,17.00
2022-09-06T01:34:55.212Z,17.00
2022-09-06T01:37:24.695Z,17.10
2022-09-06T01:39:52.699Z,17.10
2022-09-06T01:42:24.313Z,17.20
2022-09-06T01:44:56.675Z,17.20
2022-09-06T01:47:37.900Z,17.30
2022-09-06T01:50:35.262Z,17.40
2022-09-06T01:53:11.408Z,17.50
2022-09-06T01:55:45.609Z,17.50
2022-09-06T01:58:33.685Z,17.50
2022-09-06T02:01:06.937Z,17.50
2022-09-06T02:03:42.782Z,17.70
2022-09-06T02:06:16.762Z,17.80
2022-09-06T02:08:49.098Z,18.00
2022-09-06T02:11:17.674Z,18.10
2022-09-06T02:13:50.712Z,18.20
2022-09-06T02:16:23.850Z,18.30
2022-09-06T02:18:55.685Z,18.40
2022-09-06T02:21:28.964Z,18.40
2022-09-06T02:23:58.956Z,18.50
2022-09-06T02:26:29.476Z,18.60
2022-09-06T02:28:58.283Z,18.60
2022-09-06T02:31:31.385Z,18.70
2022-09-06T02:34:00.318Z,18.70
2022-09-06T02:36:28.376Z,18.80
2022-09-06T02:38:57.152Z,18.80
2022-09-06T02:41:26.006Z,18.90
2022-09-06T02:43:53.981Z,18.90
2022-09-06T02:46:23.665Z,19.00
2022-09-06T02:48:53.177Z,19.00
2022-09-06T02:51:21.150Z,19.00
2022-09-06T02:53:49.200Z,19.10
2022-09-06T02:56:17.139Z,19.10
2022-09-06T02:58:45.248Z,19.10
2022-09-06T03:01:13.233Z,19.10
2022-09-06T03:03:41.184Z,19.00
2022-09-06T03:06:10.536Z,19.00
2022-09-06T03:08:38.484Z,19.00
2022-09-06T03:11:06.444Z,19.00
2022-09-06T03:13:34.412Z,18.90
2022-09-06T03:16:02.480Z,18.90
2022-09-06T03:18:32.317Z,18.90
2022-09-06T03:21:00.748Z,18.90
2022-09-06T03:23:30.791Z,18.90
2022-09-06T03:25:58.978Z,18.90
2022-09-06T03:28:27.768Z,18.80
2022-09-06T03:30:55.972Z,18.80
2022-09-06T03:33:24.054Z,18.70
2022-09-06T03:35:53.522Z,18.70
2022-09-06T03:38:23.402Z,18.70
2022-09-06T03:40:53.230Z,18.60
2022-09-06T03:43:22.973Z,18.60
2022-09-06T03:45:53.217Z,18.60
2022-09-06T03:48:25.027Z,18.60
2022-09-06T03:50:55.140Z,18.50
2022-09-06T03:53:24.695Z,18.50
2022-09-06T03:55:55.633Z,18.40
2022-09-06T03:58:24.704Z,18.40
2022-09-06T04:01:01.645Z,18.40
2022-09-06T04:03:29.593Z,18.40
2022-09-06T04:05:57.564Z,18.30
2022-09-06T04:08:25.667Z,18.40
2022-09-06T04:10:56.650Z,18.40
2022-09-06T04:13:25.771Z,18.40
2022-09-06T04:15:54.031Z,18.30
2022-09-06T04:18:22.652Z,18.30
2022-09-06T04:20:52.158Z,18.40
2022-09-06T04:23:20.798Z,18.40
2022-09-06T04:25:49.607Z,18.40
2022-09-06T04:28:19.831Z,18.40
2022-09-06T04:30:54.266Z,18.30
2022-09-06T04:33:25.740Z,18.30
2022-09-06T04:35:54.152Z,18.40
2022-09-06T04:38:22.134Z,18.30
2022-09-06T04:40:50.220Z,18.30
2022-09-06T04:43:19.771Z,18.30
2022-09-06T04:45:47.895Z,18.30
2022-09-06T04:48:16.004Z,18.30
2022-09-06T04:50:43.955Z,18.30
2022-09-06T04:53:11.935Z,18.30
2022-09-06T04:55:39.855Z,18.20
2022-09-06T04:58:08.065Z,18.30
2022-09-06T05:00:38.728Z,18.30
2022-09-06T05:03:06.715Z,18.30
2022-09-06T05:05:34.641Z,18.30
2022-09-06T05:08:02.660Z,18.20
2022-09-06T05:10:30.927Z,18.20
2022-09-06T05:12:58.875Z,18.30
2022-09-06T05:15:26.875Z,18.20
2022-09-06T05:18:03.735Z,18.20
2022-09-06T05:20:31.854Z,18.20
2022-09-06T05:22:59.921Z,18.20
2022-09-06T05:25:27.819Z,18.20
2022-09-06T05:27:55.702Z,18.20
2022-09-06T05:30:23.623Z,18.20
2022-09-06T05:32:52.255Z,18.20
2022-09-06T05:35:21.491Z,18.20
2022-09-06T05:37:49.358Z,18.20
2022-09-06T05:40:17.452Z,18.20
2022-09-06T05:42:45.355Z,18.30
2022-09-06T05:45:13.283Z,18.30
2022-09-06T05:47:41.249Z,18.40
2022-09-06T05:50:09.993Z,18.40
2022-09-06T05:52:39.654Z,18.40
2022-09-06T05:55:08.409Z,18.30
2022-09-06T05:57:36.331Z,18.30
2022-09-06T06:00:05.850Z,18.30
2022-09-06T06:02:33.797Z,18.30
2022-09-06T06:05:02.117Z,18.40
2022-09-06T06:07:30.326Z,18.40
2022-09-06T06:09:59.600Z,18.40
2022-09-06T06:12:27.478Z,18.50
2022-09-06T06:15:05.719Z,18.60
2022-09-06T06:17:33.787Z,18.70
2022-09-06T06:20:01.735Z,18.70
2022-09-06T06:22:29.624Z,18.80
2022-09-06T06:24:58.871Z,18.80
2022-09-06T06:27:26.784Z,18.90
2022-09-06T06:29:54.680Z,19.20
2022-09-06T06:32:22.602Z,19.40
2022-09-06T06:34:50.483Z,19.70
2022-09-06T06:37:18.574Z,19.90
2022-09-06T06:39:46.648Z,20.20
2022-09-06T06:42:16.357Z,20.50
2022-09-06T06:44:44.557Z,20.80
2022-09-06T06:47:12.417Z,21.00
2022-09-06T06:49:40.474Z,21.30
2022-09-06T06:52:08.379Z,21.50
2022-09-06T06:54:37.375Z,21.80
2022-09-06T06:57:06.032Z,22.00
2022-09-06T06:59:35.315Z,22.10
2022-09-06T07:02:03.339Z,22.30
2022-09-06T07:04:31.328Z,22.50
2022-09-06T07:12:35.496Z,23.30
2022-09-06T07:15:05.218Z,23.80
2022-09-06T07:17:33.310Z,24.30
2022-09-06T07:20:16.923Z,24.40
2022-09-06T07:22:44.859Z,24.40
2022-09-06T07:25:20.388Z,24.60
2022-09-06T07:27:49.949Z,24.90
2022-09-06T07:30:20.608Z,25.40
2022-09-06T07:32:48.658Z,25.80
2022-09-06T07:35:16.851Z,26.20
2022-09-06T07:37:44.789Z,26.50
2022-09-06T07:40:12.897Z,26.90
2022-09-06T07:42:40.930Z,27.00
2022-09-06T07:45:23.383Z,27.10
2022-09-06T07:50:47.273Z,27.30
2022-09-06T07:53:24.619Z,27.30
2022-09-06T07:55:58.525Z,27.40
2022-09-06T07:58:26.451Z,27.60
2022-09-06T08:01:11.754Z,27.50
2022-09-06T08:03:39.758Z,27.70
2022-09-06T08:08:59.212Z,27.70
2022-09-06T08:11:29.500Z,27.60
2022-09-06T08:13:58.864Z,27.50
2022-09-06T08:16:29.923Z,27.50
2022-09-06T08:18:59.283Z,27.60
2022-09-06T08:21:29.148Z,27.80
2022-09-06T08:23:59.980Z,28.10
2022-09-06T08:26:28.870Z,28.30
2022-09-06T08:28:58.887Z,28.50
2022-09-06T08:31:29.759Z,28.80
2022-09-06T08:33:58.603Z,29.00
2022-09-06T08:36:29.539Z,29.20
2022-09-06T08:38:59.921Z,29.50
2022-09-06T08:41:30.259Z,29.80
2022-09-06T08:46:56.783Z,30.30
2022-09-06T08:49:26.695Z,30.60
2022-09-06T08:52:18.208Z,30.70
2022-09-06T08:54:52.712Z,30.90
2022-09-06T08:57:40.259Z,31.10
2022-09-06T09:00:13.199Z,31.30
2022-09-06T09:02:47.579Z,31.30
2022-09-06T09:05:23.222Z,31.30
2022-09-06T09:08:01.540Z,31.30
2022-09-06T09:10:32.582Z,31.30
2022-09-06T09:13:03.397Z,31.30
2022-09-06T09:15:40.406Z,31.20
2022-09-06T09:18:09.952Z,31.20
2022-09-06T09:20:38.986Z,31.10
2022-09-06T09:23:07.007Z,31.20
2022-09-06T09:25:36.386Z,31.30
2022-09-06T09:28:16.246Z,31.20
2022-09-06T09:30:50.792Z,31.10
2022-09-06T09:33:25.598Z,31.10
2022-09-06T09:35:54.138Z,31.10
2022-09-06T09:38:24.566Z,31.10
2022-09-06T09:40:55.081Z,31.10
2022-09-06T09:43:24.860Z,31.10
2022-09-06T09:46:10.828Z,31.10
2022-09-06T09:48:41.478Z,31.10
2022-09-06T09:51:27.441Z,31.00
2022-09-06T09:53:57.318Z,31.10
2022-09-06T09:56:31.663Z,31.10
2022-09-06T09:59:00.391Z,31.30
2022-09-06T10:01:31.458Z,31.40
2022-09-06T10:07:10.280Z,31.40
2022-09-06T10:09:41.277Z,31.30
2022-09-06T10:12:09.397Z,31.30
2022-09-06T10:14:49.442Z,31.20
2022-09-06T10:17:23.174Z,31.10
2022-09-06T10:19:52.432Z,31.10
2022-09-06T10:22:32.778Z,30.90
2022-09-06T10:25:37.281Z,30.90
2022-09-06T10:28:25.746Z,30.90
2022-09-06T10:31:03.481Z,30.90
2022-09-06T10:33:40.400Z,30.90
2022-09-06T10:36:09.715Z,30.80
2022-09-06T10:38:49.332Z,30.80
2022-09-06T10:41:32.891Z,30.70
2022-09-06T10:44:10.981Z,30.60
2022-09-06T10:46:41.653Z,30.40
2022-09-06T10:49:15.668Z,30.20
2022-09-06T10:51:50.077Z,30.20
2022-09-06T10:54:22.005Z,30.10
2022-09-06T10:56:54.814Z,29.80
2022-09-06T11:02:15.190Z,29.70
2022-09-06T11:07:38.134Z,29.50
2022-09-06T11:10:13.870Z,29.40
2022-09-06T11:12:47.373Z,29.40
2022-09-06T11:15:17.495Z,29.30
2022-09-06T11:17:52.497Z,29.20
2022-09-06T11:20:29.905Z,29.10
2022-09-06T11:23:28.636Z,28.80
2022-09-06T11:26:30.102Z,28.70
2022-09-06T11:29:00.323Z,28.40
2022-09-06T11:34:23.042Z,28.20
2022-09-06T11:36:53.198Z,28.20
2022-09-06T11:43:04.237Z,28.20
2022-09-06T11:45:46.583Z,28.20
2022-09-06T11:48:49.917Z,28.00
2022-09-06T11:51:35.550Z,27.80
2022-09-06T11:54:21.738Z,27.70
2022-09-06T11:56:55.989Z,27.60
2022-09-06T11:59:42.527Z,27.60
2022-09-06T12:02:37.475Z,27.50
2022-09-06T12:05:16.790Z,27.40
2022-09-06T12:08:34.088Z,27.30
2022-09-06T12:11:07.640Z,27.20
2022-09-06T12:13:41.644Z,27.10
2022-09-06T12:16:11.438Z,27.00
2022-09-06T12:19:43.442Z,26.90
2022-09-06T12:22:52.106Z,26.70
2022-09-06T12:25:21.466Z,26.30
2022-09-06T12:27:56.364Z,26.00
2022-09-06T12:30:37.226Z,25.80
2022-09-06T12:33:08.587Z,25.70
2022-09-06T12:38:25.520Z,25.40
2022-09-06T12:40:58.878Z,25.00
2022-09-06T12:43:27.507Z,24.50
2022-09-06T12:45:55.470Z,24.20
2022-09-06T12:48:28.953Z,24.00
2022-09-06T12:51:06.640Z,23.90
2022-09-06T12:53:35.562Z,23.80
2022-09-06T12:56:05.682Z,23.70
2022-09-06T12:58:33.751Z,23.50
2022-09-06T13:01:07.415Z,23.50
2022-09-06T13:03:39.365Z,23.40
2022-09-06T13:06:12.768Z,23.40
2022-09-06T13:08:47.545Z,23.30
2022-09-06T13:11:18.780Z,23.30
2022-09-06T13:13:49.891Z,23.20
2022-09-06T13:16:23.354Z,23.20
2022-09-06T13:18:51.808Z,23.20
2022-09-06T13:21:30.188Z,23.10
2022-09-06T13:23:59.047Z,23.10
2022-09-06T13:26:38.066Z,23.00
2022-09-06T13:29:30.459Z,22.90
2022-09-06T13:31:59.790Z,22.80
2022-09-06T13:34:29.141Z,22.70
2022-09-06T13:37:02.427Z,22.60
2022-09-06T13:39:32.920Z,22.60
2022-09-06T13:42:07.490Z,22.50
2022-09-06T13:44:36.579Z,22.30
2022-09-06T13:47:04.761Z,22.20
2022-09-06T13:49:33.791Z,22.20
2022-09-06T13:52:05.268Z,22.10
2022-09-06T13:54:34.131Z,22.10
2022-09-06T13:57:02.578Z,22.00
2022-09-06T13:59:31.201Z,21.90
2022-09-06T14:02:03.192Z,21.90
2022-09-06T14:04:31.985Z,21.80
2022-09-06T14:07:00.429Z,21.60
2022-09-06T14:09:30.210Z,21.50
2022-09-06T14:11:58.485Z,21.40
2022-09-06T14:14:26.439Z,21.30
2022-09-06T14:16:54.780Z,21.20
2022-09-06T14:19:23.146Z,21.20
2022-09-06T14:21:51.119Z,21.20
2022-09-06T14:24:19.005Z,21.20
2022-09-06T14:26:48.757Z,21.10
2022-09-06T14:29:16.796Z,20.90
2022-09-06T14:31:44.806Z,20.70
2022-09-06T14:34:12.774Z,20.60
2022-09-06T14:36:40.852Z,20.50
2022-09-06T14:39:08.785Z,20.50
2022-09-06T14:41:36.687Z,20.50
2022-09-06T14:44:05.938Z,20.50
2022-09-06T14:46:33.837Z,20.60
2022-09-06T14:49:03.996Z,20.60
2022-09-06T14:51:31.995Z,20.60
2022-09-06T14:54:03.559Z,20.60
2022-09-06T14:56:31.609Z,20.70
2022-09-06T14:59:00.373Z,20.80
2022-09-06T15:01:37.141Z,20.80
2022-09-06T15:04:09.244Z,20.90
2022-09-06T15:06:40.155Z,21.10
2022-09-06T15:09:10.152Z,21.30
2022-09-06T15:11:42.586Z,21.60
2022-09-06T15:14:15.521Z,21.80
2022-09-06T15:16:45.458Z,22.10
2022-09-06T15:19:13.576Z,22.40
2022-09-06T15:21:42.207Z,22.70
2022-09-06T15:24:12.183Z,22.90
2022-09-06T15:26:40.883Z,22.90
2022-09-06T15:29:09.548Z,23.00
2022-09-06T15:31:38.334Z,23.10
2022-09-06T15:38:34.717Z,23.10
2022-09-06T15:41:08.201Z,23.10
2022-09-06T15:43:37.890Z,23.00
2022-09-06T15:46:06.071Z,23.00
2022-09-06T15:48:44.023Z,23.00
2022-09-06T15:51:13.566Z,23.00
2022-09-06T15:53:43.397Z,23.00
2022-09-06T15:56:14.525Z,23.10
2022-09-06T15:58:42.498Z,23.10
2022-09-06T16:01:12.205Z,23.20
2022-09-06T16:03:42.248Z,23.20
2022-09-06T16:06:28.473Z,23.20
2022-09-06T16:08:59.718Z,23.20
2022-09-06T16:11:28.497Z,23.20
2022-09-06T16:13:57.019Z,23.20
2022-09-06T16:16:25.004Z,23.20
2022-09-06T16:18:53.135Z,23.20
2022-09-06T16:21:24.856Z,23.20
2022-09-06T16:23:55.979Z,23.20
2022-09-06T16:26:26.968Z,23.20
2022-09-06T16:28:55.349Z,23.20
2022-09-06T16:31:24.049Z,23.20
2022-09-06T16:33:53.681Z,23.20
2022-09-06T16:36:22.605Z,23.20
2022-09-06T16:38:50.602Z,23.10
2022-09-06T16:41:20.961Z,23.10
2022-09-06T16:43:53.083Z,23.00
2022-09-06T16:46:22.923Z,23.00
2022-09-06T16:48:52.566Z,22.90
2022-09-06T16:51:22.904Z,22.90
2022-09-06T16:53:51.974Z,22.80
2022-09-06T16:56:21.903Z,22.80
2022-09-06T16:58:55.994Z,22.70
2022-09-06T17:01:24.746Z,22.70
2022-09-06T17:03:53.226Z,22.60
2022-09-06T17:06:22.947Z,22.60
2022-09-06T17:08:51.922Z,22.60
2022-09-06T17:11:21.548Z,22.50
2022-09-06T17:13:53.283Z,22.40
2022-09-06T17:16:40.285Z,22.40
2022-09-06T17:19:08.942Z,22.40
2022-09-06T17:21:39.112Z,22.30
2022-09-06T17:24:07.845Z,22.20
2022-09-06T17:26:38.015Z,22.20
2022-09-06T17:29:07.790Z,22.10
2022-09-06T17:31:35.872Z,22.00
2022-09-06T17:34:03.899Z,21.90
2022-09-06T17:36:32.931Z,21.90
2022-09-06T17:39:02.409Z,21.90
2022-09-06T17:41:36.518Z,21.80
2022-09-06T17:44:05.603Z,21.70
2022-09-06T17:46:34.916Z,21.60
2022-09-06T17:49:04.921Z,21.60
2022-09-06T17:51:33.426Z,21.50
2022-09-06T17:54:01.534Z,21.40
2022-09-06T17:56:30.341Z,21.30
2022-09-06T17:59:00.222Z,21.20
2022-09-06T18:01:33.936Z,21.10
2022-09-06T18:04:05.060Z,21.00
2022-09-06T18:06:34.226Z,20.90
2022-09-06T18:09:06.033Z,20.80
2022-09-06T18:11:34.866Z,20.80
2022-09-06T18:14:04.833Z,20.70
2022-09-06T18:16:34.705Z,20.70
2022-09-06T18:19:05.934Z,20.60
2022-09-06T18:21:35.955Z,20.50
2022-09-06T18:24:04.852Z,20.40
2022-09-06T18:26:32.748Z,20.40
2022-09-06T18:29:01.075Z,20.40
2022-09-06T18:31:29.520Z,20.30
2022-09-06T18:33:58.960Z,20.30
2022-09-06T18:36:31.924Z,20.30
2022-09-06T18:39:02.947Z,20.30
2022-09-06T18:41:45.025Z,20.20
2022-09-06T18:44:12.998Z,20.10
2022-09-06T18:46:40.908Z,20.10
2022-09-06T18:49:08.935Z,20.00
2022-09-06T18:51:40.620Z,19.90
2022-09-06T18:54:09.065Z,19.90
2022-09-06T18:56:38.146Z,19.80
2022-09-06T18:59:08.802Z,19.80
2022-09-06T19:01:36.991Z,19.80
2022-09-06T19:04:06.213Z,19.70
2022-09-06T19:06:35.634Z,19.70
2022-09-06T19:09:07.511Z,19.70
2022-09-06T19:11:36.317Z,19.60
2022-09-06T19:14:05.080Z,19.70
2022-09-06T19:16:33.599Z,19.70
2022-09-06T19:19:03.640Z,19.60
2022-09-06T19:21:31.607Z,19.60
2022-09-06T19:24:01.066Z,19.60
2022-09-06T19:26:32.318Z,19.60
2022-09-06T19:29:02.006Z,19.50
2022-09-06T19:31:33.353Z,19.50
2022-09-06T19:34:02.422Z,19.40
2022-09-06T19:36:31.875Z,19.30
2022-09-06T19:39:04.801Z,19.30
2022-09-06T19:41:36.606Z,19.20
2022-09-06T19:44:07.733Z,19.20
2022-09-06T19:46:36.320Z,19.20
2022-09-06T19:49:08.066Z,19.20
2022-09-06T19:51:36.604Z,19.20
2022-09-06T19:54:05.241Z,19.10
2022-09-06T19:56:36.065Z,19.20
2022-09-06T19:59:06.176Z,19.20
2022-09-06T20:01:36.803Z,19.20
2022-09-06T20:04:06.942Z,19.20
2022-09-06T20:06:35.401Z,19.10
2022-09-06T20:09:05.446Z,19.10
2022-09-06T20:11:36.043Z,19.00
2022-09-06T20:14:03.988Z,19.00
2022-09-06T20:16:32.290Z,19.00
2022-09-06T20:19:00.495Z,19.00
2022-09-06T20:21:29.533Z,18.90
2022-09-06T20:23:59.142Z,18.90
2022-09-06T20:26:28.969Z,18.90
2022-09-06T20:29:00.513Z,18.80
2022-09-06T20:31:31.220Z,18.80
2022-09-06T20:34:03.190Z,18.80
2022-09-06T20:36:31.163Z,18.80
2022-09-06T20:38:59.108Z,18.70
2022-09-06T20:41:27.902Z,18.60
2022-09-06T20:43:58.983Z,18.70
2022-09-06T20:46:30.909Z,18.70
2022-09-06T20:49:03.476Z,18.70
2022-09-06T20:51:32.478Z,18.70
2022-09-06T20:54:01.653Z,18.60
2022-09-06T20:56:31.706Z,18.60
2022-09-06T20:59:02.847Z,18.50
2022-09-06T21:01:35.648Z,18.50
2022-09-06T21:04:06.186Z,18.50
2022-09-06T21:06:36.021Z,18.50
2022-09-06T21:09:05.430Z,18.50
2022-09-06T21:11:33.346Z,18.50
2022-09-06T21:14:03.257Z,18.50
2022-09-06T21:16:31.543Z,18.50
2022-09-06T21:19:01.799Z,18.50
2022-09-06T21:21:32.192Z,18.50
2022-09-06T21:24:01.638Z,18.50
2022-09-06T21:26:29.766Z,18.50
2022-09-06T21:28:58.187Z,18.50
2022-09-06T21:31:29.397Z,18.50
2022-09-06T21:33:59.114Z,18.50
2022-09-06T21:36:29.341Z,18.50
2022-09-06T21:38:59.142Z,18.50
2022-09-06T21:41:28.632Z,18.60
2022-09-06T21:43:58.207Z,18.50
2022-09-06T21:46:32.660Z,18.50
2022-09-06T21:49:02.709Z,18.50
2022-09-06T21:51:30.933Z,18.40
2022-09-06T21:53:59.688Z,18.40
2022-09-06T21:56:27.666Z,18.30
2022-09-06T21:58:57.570Z,18.30
2022-09-06T22:01:28.193Z,18.20
2022-09-06T22:03:56.386Z,18.20
2022-09-06T22:06:26.489Z,18.10
2022-09-06T22:08:54.505Z,18.10
2022-09-06T22:11:24.656Z,18.10
2022-09-06T22:13:52.949Z,18.10
2022-09-06T22:16:22.686Z,18.10
2022-09-06T22:18:52.059Z,18.10
2022-09-06T22:21:21.415Z,18.10
2022-09-06T22:23:53.607Z,18.10
2022-09-06T22:26:22.029Z,18.10
2022-09-06T22:28:54.634Z,18.10
2022-09-06T22:31:23.215Z,18.10
2022-09-06T22:33:52.487Z,18.10
2022-09-06T22:36:20.730Z,18.10
2022-09-06T22:38:48.736Z,18.10
2022-09-06T22:41:16.590Z,18.10
2022-09-06T22:43:44.487Z,18.10
2022-09-06T22:46:12.657Z,18.10
2022-09-06T22:48:41.052Z,18.10
2022-09-06T22:51:10.313Z,18.10
2022-09-06T22:53:39.204Z,18.10
2022-09-06T22:56:07.396Z,18.10
2022-09-06T22:58:36.088Z,18.10
2022-09-06T23:01:08.974Z,18.10
2022-09-06T23:03:37.082Z,18.10
2022-09-06T23:06:05.548Z,18.10
2022-09-06T23:08:35.938Z,18.20
2022-09-06T23:11:07.126Z,18.30
2022-09-06T23:13:35.422Z,18.40
2022-09-06T23:16:05.067Z,18.50
2022-09-06T23:18:33.396Z,18.50
2022-09-06T23:21:06.157Z,18.60
2022-09-06T23:23:35.784Z,18.60
2022-09-06T23:26:08.233Z,18.70
2022-09-06T23:28:36.464Z,18.70
2022-09-06T23:31:05.131Z,18.80
2022-09-06T23:33:35.021Z,18.80
2022-09-06T23:36:03.182Z,18.80
2022-09-06T23:38:33.217Z,18.80
2022-09-06T23:41:03.193Z,18.80
2022-09-06T23:43:31.442Z,18.80
2022-09-06T23:45:59.687Z,18.80
2022-09-06T23:48:27.633Z,18.80
2022-09-06T23:50:55.524Z,18.80
2022-09-06T23:53:23.502Z,18.80
2022-09-06T23:55:51.414Z,18.80
2022-09-06T23:58:20.926Z,18.80
